createdAt,value
2019-05-17T00:00:08.015Z,99.90
2019-05-17T00:02:37.453Z,99.90
2019-05-17T00:05:07.910Z,99.90
2019-05-17T00:07:36.969Z,99.90
2019-05-17T00:10:07.406Z,99.90
2019-05-17T00:12:36.737Z,99.90
2019-05-17T00:15:07.876Z,99.90
2019-05-17T00:17:37.626Z,99.90
2019-05-17T00:20:09.747Z,99.90
2019-05-17T00:22:38.126Z,99.90
2019-05-17T00:25:07.617Z,99.90
2019-05-17T00:27:36.994Z,99.90
2019-05-17T00:30:09.158Z,99.90
2019-05-17T00:32:37.634Z,99.90
2019-05-17T00:35:10.766Z,99.90
2019-05-17T00:37:39.186Z,99.90
2019-05-17T00:40:09.035Z,99.90
2019-05-17T00:42:37.493Z,99.90
2019-05-17T00:45:08.331Z,99.90
2019-05-17T00:47:37.530Z,99.90
2019-05-17T00:50:09.875Z,99.90
2019-05-17T00:52:38.286Z,99.90
2019-05-17T00:55:08.145Z,99.90
2019-05-17T00:57:37.066Z,99.90
2019-05-17T01:00:08.560Z,99.90
2019-05-17T01:02:37.358Z,99.90
2019-05-17T01:05:07.391Z,99.90
2019-05-17T01:07:37.615Z,99.90
2019-05-17T01:10:08.134Z,99.90
2019-05-17T01:12:36.732Z,99.90
2019-05-17T01:15:11.804Z,99.90
2019-05-17T01:17:40.210Z,99.90
2019-05-17T01:20:09.087Z,99.90
2019-05-17T01:22:37.627Z,99.90
2019-05-17T01:25:08.632Z,99.90
2019-05-17T01:27:38.247Z,99.90
2019-05-17T01:30:08.767Z,99.90
2019-05-17T01:32:37.513Z,99.90
2019-05-17T01:35:07.525Z,99.90
2019-05-17T01:37:36.959Z,99.90
2019-05-17T01:40:07.250Z,99.90
2019-05-17T01:42:37.356Z,99.90
2019-05-17T01:45:07.931Z,99.90
2019-05-17T01:47:36.881Z,99.90
2019-05-17T01:50:09.166Z,99.90
2019-05-17T01:52:37.754Z,99.90
2019-05-17T01:55:09.390Z,99.90
2019-05-17T01:57:37.781Z,99.90
2019-05-17T02:00:10.579Z,99.90
2019-05-17T02:02:40.685Z,99.90
2019-05-17T02:05:09.622Z,99.90
2019-05-17T02:07:38.014Z,99.90
2019-05-17T02:10:09.900Z,99.90
2019-05-17T02:12:38.380Z,99.90
2019-05-17T02:15:10.271Z,99.90
2019-05-17T02:17:38.818Z,99.90
2019-05-17T02:20:08.843Z,99.90
2019-05-17T02:22:37.251Z,99.90
2019-05-17T02:25:08.083Z,99.90
2019-05-17T02:27:41.045Z,99.90
2019-05-17T02:30:07.710Z,99.90
2019-05-17T02:32:36.456Z,99.90
2019-05-17T02:35:05.511Z,99.90
2019-05-17T02:37:33.905Z,99.90
2019-05-17T02:40:07.185Z,99.90
2019-05-17T02:42:33.351Z,99.90
2019-05-17T02:45:03.007Z,99.90
2019-05-17T02:47:33.649Z,99.90
2019-05-17T02:50:05.680Z,99.90
2019-05-17T02:52:33.033Z,99.90
2019-05-17T02:55:04.154Z,99.90
2019-05-17T02:57:34.403Z,99.90
2019-05-17T03:00:04.393Z,99.90
2019-05-17T03:02:34.074Z,99.90
2019-05-17T03:05:04.098Z,99.90
2019-05-17T03:07:32.712Z,99.90
2019-05-17T03:10:17.082Z,99.90
2019-05-17T03:12:32.968Z,99.90
2019-05-17T03:15:04.008Z,99.90
2019-05-17T03:17:33.782Z,99.90
2019-05-17T03:20:04.019Z,99.90
2019-05-17T03:22:33.259Z,99.90
2019-05-17T03:25:03.500Z,99.90
2019-05-17T03:27:33.648Z,99.90
2019-05-17T03:30:04.070Z,99.90
2019-05-17T03:32:36.147Z,99.90
2019-05-17T03:35:07.007Z,99.90
2019-05-17T03:37:38.031Z,99.90
2019-05-17T03:40:23.322Z,99.90
2019-05-17T03:42:36.355Z,99.90
2019-05-17T03:45:06.405Z,99.90
2019-05-17T03:47:34.820Z,99.90
2019-05-17T03:50:03.544Z,99.90
2019-05-17T03:52:33.353Z,99.90
2019-05-17T03:55:03.904Z,99.90
2019-05-17T03:57:32.465Z,99.90
2019-05-17T04:00:03.926Z,99.90
2019-05-17T04:02:32.731Z,99.90
2019-05-17T04:05:04.444Z,99.90
2019-05-17T04:07:32.849Z,99.90
2019-05-17T04:10:04.523Z,99.90
2019-05-17T04:12:32.743Z,99.90
2019-05-17T04:15:03.179Z,99.90
2019-05-17T04:17:32.769Z,99.90
2019-05-17T04:20:03.419Z,99.90
2019-05-17T04:22:33.151Z,99.90
2019-05-17T04:25:03.062Z,99.90
2019-05-17T04:27:32.674Z,99.90
2019-05-17T04:30:03.700Z,99.90
2019-05-17T04:32:33.040Z,99.90
2019-05-17T04:35:03.636Z,99.90
2019-05-17T04:37:33.994Z,99.90
2019-05-17T04:40:03.295Z,99.90
2019-05-17T04:42:33.100Z,99.90
2019-05-17T04:45:03.803Z,99.90
2019-05-17T04:47:33.192Z,99.90
2019-05-17T04:50:04.035Z,99.90
2019-05-17T04:52:33.618Z,99.90
2019-05-17T04:55:04.045Z,99.90
2019-05-17T04:57:32.685Z,99.90
2019-05-17T05:00:04.175Z,99.90
2019-05-17T05:02:33.048Z,99.90
2019-05-17T05:05:03.338Z,99.90
2019-05-17T05:07:33.545Z,99.90
2019-05-17T05:10:03.253Z,99.90
2019-05-17T05:12:33.655Z,99.90
2019-05-17T05:15:03.515Z,99.90
2019-05-17T05:17:32.954Z,99.90
2019-05-17T05:20:02.921Z,99.90
2019-05-17T05:22:32.972Z,99.90
2019-05-17T05:25:02.105Z,99.90
2019-05-17T05:27:31.643Z,99.90
2019-05-17T05:30:02.858Z,99.90
2019-05-17T05:32:31.564Z,99.90
2019-05-17T05:35:02.875Z,99.90
2019-05-17T05:37:32.960Z,99.90
2019-05-17T05:40:02.103Z,99.90
2019-05-17T05:42:31.551Z,99.90
2019-05-17T05:45:02.941Z,99.90
2019-05-17T05:47:32.329Z,99.90
2019-05-17T05:50:01.649Z,99.90
2019-05-17T05:52:32.428Z,99.90
2019-05-17T05:55:01.520Z,99.90
2019-05-17T05:57:32.069Z,99.90
2019-05-17T06:00:02.218Z,99.90
2019-05-17T06:02:32.279Z,99.90
2019-05-17T06:05:02.035Z,99.90
2019-05-17T06:07:32.188Z,99.90
2019-05-17T06:10:02.188Z,99.90
2019-05-17T06:12:32.267Z,99.90
2019-05-17T06:15:02.726Z,99.90
2019-05-17T06:17:31.812Z,99.90
2019-05-17T06:20:02.417Z,99.90
2019-05-17T06:22:31.819Z,99.90
2019-05-17T06:25:03.450Z,99.90
2019-05-17T06:27:32.087Z,99.90
2019-05-17T06:30:01.489Z,99.90
2019-05-17T06:32:31.680Z,99.90
2019-05-17T06:35:01.897Z,99.90
2019-05-17T06:37:31.738Z,99.90
2019-05-17T06:40:02.412Z,99.90
2019-05-17T06:42:41.018Z,99.90
2019-05-17T06:45:02.164Z,99.90
2019-05-17T06:47:32.840Z,99.90
2019-05-17T06:50:03.141Z,99.90
2019-05-17T06:52:32.661Z,99.90
2019-05-17T06:55:05.363Z,99.90
2019-05-17T06:57:32.584Z,99.90
2019-05-17T07:00:03.222Z,99.90
2019-05-17T07:02:31.397Z,99.90
2019-05-17T07:05:01.669Z,99.90
2019-05-17T07:07:30.706Z,99.90
2019-05-17T07:10:00.469Z,99.90
2019-05-17T07:12:30.725Z,99.90
2019-05-17T07:15:01.623Z,99.90
2019-05-17T07:17:30.404Z,99.90
2019-05-17T07:19:59.703Z,99.90
2019-05-17T07:22:29.701Z,99.90
2019-05-17T07:24:59.765Z,99.90
2019-05-17T07:27:40.672Z,99.90
2019-05-17T07:29:59.250Z,99.90
2019-05-17T07:32:29.784Z,99.90
2019-05-17T07:35:00.027Z,99.90
2019-05-17T07:37:30.349Z,99.90
2019-05-17T07:40:04.887Z,99.90
2019-05-17T07:42:29.814Z,99.90
2019-05-17T07:45:00.506Z,99.90
2019-05-17T07:47:29.422Z,99.90
2019-05-17T07:50:00.706Z,99.80
2019-05-17T07:52:30.133Z,99.50
2019-05-17T07:55:02.464Z,99.30
2019-05-17T07:57:29.934Z,99.30
2019-05-17T08:00:00.025Z,99.00
2019-05-17T08:02:30.680Z,98.70
2019-05-17T08:05:00.517Z,98.40
2019-05-17T08:07:30.168Z,98.20
2019-05-17T08:10:00.148Z,98.00
2019-05-17T08:12:30.432Z,98.00
2019-05-17T08:14:59.860Z,97.80
2019-05-17T08:17:30.466Z,97.60
2019-05-17T08:20:00.513Z,97.70
2019-05-17T08:22:29.391Z,97.60
2019-05-17T08:24:59.957Z,97.10
2019-05-17T08:27:29.697Z,97.20
2019-05-17T08:29:59.610Z,97.20
2019-05-17T08:32:28.433Z,96.70
2019-05-17T08:34:57.088Z,96.00
2019-05-17T08:37:25.519Z,96.00
2019-05-17T08:39:53.924Z,96.10
2019-05-17T08:42:22.373Z,95.80
2019-05-17T08:44:50.888Z,95.50
2019-05-17T08:47:20.876Z,95.50
2019-05-17T08:49:49.869Z,95.10
2019-05-17T08:52:20.031Z,95.20
2019-05-17T08:54:49.591Z,94.90
2019-05-17T08:57:20.376Z,95.10
2019-05-17T08:59:49.768Z,94.80
2019-05-17T09:02:19.881Z,94.80
2019-05-17T09:04:49.811Z,94.20
2019-05-17T09:07:20.404Z,93.60
2019-05-17T09:09:50.103Z,93.70
2019-05-17T09:12:20.621Z,93.50
2019-05-17T09:14:49.719Z,93.30
2019-05-17T09:17:19.342Z,93.30
2019-05-17T09:19:50.517Z,93.40
2019-05-17T09:22:19.826Z,93.20
2019-05-17T09:24:49.979Z,93.00
2019-05-17T09:27:19.767Z,92.80
2019-05-17T09:29:49.718Z,92.80
2019-05-17T09:32:20.224Z,92.50
2019-05-17T09:34:49.866Z,92.20
2019-05-17T09:37:22.119Z,92.40
2019-05-17T09:39:49.273Z,91.80
2019-05-17T09:42:20.741Z,91.60
2019-05-17T09:44:49.716Z,91.90
2019-05-17T09:47:20.610Z,91.90
2019-05-17T09:49:50.174Z,91.80
2019-05-17T09:52:20.008Z,91.50
2019-05-17T09:54:50.456Z,91.20
2019-05-17T09:57:20.462Z,91.20
2019-05-17T09:59:49.585Z,91.10
2019-05-17T10:02:20.405Z,91.30
2019-05-17T10:04:50.295Z,91.60
2019-05-17T10:07:20.794Z,91.50
2019-05-17T10:09:50.237Z,91.50
2019-05-17T10:12:20.269Z,90.80
2019-05-17T10:14:49.820Z,90.90
2019-05-17T10:17:18.387Z,90.70
2019-05-17T10:19:46.814Z,91.00
2019-05-17T10:22:15.223Z,90.60
2019-05-17T10:24:43.695Z,90.40
2019-05-17T10:27:14.549Z,90.20
2019-05-17T10:29:42.259Z,90.10
2019-05-17T10:32:10.688Z,90.20
2019-05-17T10:34:40.133Z,90.00
2019-05-17T10:37:10.460Z,89.80
2019-05-17T10:39:41.509Z,89.40
2019-05-17T10:42:10.059Z,88.70
2019-05-17T10:44:46.313Z,88.30
2019-05-17T10:47:10.087Z,88.70
2019-05-17T10:49:40.166Z,88.80
2019-05-17T10:52:09.506Z,88.60
2019-05-17T10:54:40.078Z,88.30
2019-05-17T10:57:10.270Z,87.50
2019-05-17T10:59:38.366Z,87.00
2019-05-17T11:02:06.882Z,87.20
2019-05-17T11:04:35.392Z,86.30
2019-05-17T11:07:04.347Z,86.10
2019-05-17T11:09:32.876Z,85.10
2019-05-17T11:12:01.302Z,85.70
2019-05-17T11:14:29.690Z,85.70
2019-05-17T11:16:58.335Z,86.60
2019-05-17T11:19:26.804Z,85.90
2019-05-17T11:22:14.576Z,85.30
2019-05-17T11:24:43.104Z,85.20
2019-05-17T11:27:11.559Z,85.00
2019-05-17T11:29:40.002Z,85.30
2019-05-17T11:32:08.431Z,84.50
2019-05-17T11:34:36.907Z,84.80
2019-05-17T11:37:05.380Z,84.30
2019-05-17T11:39:33.867Z,84.20
2019-05-17T11:42:02.353Z,84.90
2019-05-17T11:44:30.842Z,84.60
2019-05-17T11:46:59.255Z,82.70
2019-05-17T11:49:27.658Z,80.50
2019-05-17T11:51:56.107Z,79.70
2019-05-17T11:54:24.569Z,79.00
2019-05-17T11:56:52.959Z,78.80
2019-05-17T11:59:21.764Z,78.70
2019-05-17T12:01:50.304Z,78.40
2019-05-17T12:04:18.839Z,77.50
2019-05-17T12:06:47.251Z,78.30
2019-05-17T12:09:15.653Z,79.70
2019-05-17T12:11:44.127Z,80.90
2019-05-17T12:14:12.596Z,80.40
2019-05-17T12:16:41.348Z,78.70
2019-05-17T12:19:10.043Z,78.80
2019-05-17T12:21:38.492Z,77.80
2019-05-17T12:24:06.964Z,77.10
2019-05-17T12:26:35.352Z,76.20
2019-05-17T12:29:03.835Z,76.10
2019-05-17T12:31:32.298Z,75.20
2019-05-17T12:34:00.720Z,74.30
2019-05-17T12:36:29.192Z,72.70
2019-05-17T12:38:57.580Z,73.20
2019-05-17T12:41:26.002Z,74.30
2019-05-17T12:43:54.390Z,74.40
2019-05-17T12:46:22.791Z,72.90
2019-05-17T12:48:51.211Z,71.80
2019-05-17T12:51:19.675Z,73.80
2019-05-17T12:53:48.080Z,73.90
2019-05-17T12:56:16.583Z,73.40
2019-05-17T12:58:44.970Z,71.50
2019-05-17T13:01:13.381Z,70.50
2019-05-17T13:03:41.777Z,72.40
2019-05-17T13:06:10.178Z,74.30
2019-05-17T13:08:39.159Z,73.10
2019-05-17T13:11:07.553Z,69.30
2019-05-17T13:13:35.952Z,67.20
2019-05-17T13:16:17.376Z,67.10
2019-05-17T13:18:34.870Z,67.00
2019-05-17T13:21:03.302Z,66.20
2019-05-17T13:23:31.888Z,64.60
2019-05-17T13:26:00.447Z,63.20
2019-05-17T13:28:28.864Z,62.00
2019-05-17T13:30:57.436Z,61.00
2019-05-17T13:33:29.087Z,60.40
2019-05-17T13:35:56.188Z,60.00
2019-05-17T13:38:24.572Z,60.50
2019-05-17T13:40:53.154Z,59.60
2019-05-17T13:43:21.554Z,58.20
2019-05-17T13:45:50.040Z,58.30
2019-05-17T13:48:18.467Z,59.00
2019-05-17T13:50:46.871Z,59.80
2019-05-17T13:53:15.342Z,59.90
2019-05-17T13:55:44.065Z,60.80
2019-05-17T13:58:12.488Z,61.70
2019-05-17T14:00:40.878Z,60.80
2019-05-17T14:03:09.343Z,60.00
2019-05-17T14:05:37.763Z,59.60
2019-05-17T14:08:06.154Z,59.80
2019-05-17T14:10:34.574Z,59.20
2019-05-17T14:13:03.077Z,58.80
2019-05-17T14:15:31.624Z,58.80
2019-05-17T14:18:00.123Z,59.10
2019-05-17T14:20:28.547Z,58.90
2019-05-17T14:22:56.947Z,58.40
2019-05-17T14:25:25.390Z,57.40
2019-05-17T14:27:53.828Z,56.70
2019-05-17T14:30:22.564Z,57.00
2019-05-17T14:32:51.303Z,57.90
2019-05-17T14:35:19.678Z,57.40
2019-05-17T14:37:48.312Z,57.30
2019-05-17T14:40:16.956Z,57.40
2019-05-17T14:42:45.352Z,56.10
2019-05-17T14:45:13.899Z,55.40
2019-05-17T14:47:42.296Z,55.00
2019-05-17T14:50:11.051Z,54.50
2019-05-17T14:52:39.442Z,53.90
2019-05-17T14:55:08.070Z,54.10
2019-05-17T14:57:36.486Z,54.10
2019-05-17T15:00:05.943Z,53.90
2019-05-17T15:02:34.354Z,54.10
2019-05-17T15:05:03.285Z,54.30
2019-05-17T15:07:31.880Z,54.90
2019-05-17T15:10:00.384Z,55.00
2019-05-17T15:12:29.092Z,55.20
2019-05-17T15:14:57.684Z,55.90
2019-05-17T15:17:26.071Z,56.60
2019-05-17T15:19:54.539Z,57.10
2019-05-17T15:22:22.945Z,57.80
2019-05-17T15:24:51.586Z,58.60
2019-05-17T15:27:19.989Z,59.30
2019-05-17T15:29:48.383Z,65.20
2019-05-17T15:32:16.802Z,74.20
2019-05-17T15:34:45.189Z,83.50
2019-05-17T15:37:13.634Z,90.10
2019-05-17T15:39:42.074Z,92.60
2019-05-17T15:42:10.465Z,94.20
2019-05-17T15:44:38.875Z,95.70
2019-05-17T15:47:07.271Z,97.30
2019-05-17T15:49:35.682Z,98.60
2019-05-17T15:52:04.215Z,99.70
2019-05-17T15:54:32.622Z,99.90
2019-05-17T15:57:01.095Z,99.90
2019-05-17T15:59:29.499Z,99.90
2019-05-17T16:01:57.956Z,99.90
2019-05-17T16:04:26.415Z,99.90
2019-05-17T16:06:55.094Z,99.90
2019-05-17T16:09:23.583Z,99.90
2019-05-17T16:11:52.008Z,99.90
2019-05-17T16:14:20.557Z,99.90
2019-05-17T16:16:48.958Z,99.90
2019-05-17T16:19:17.347Z,99.90
2019-05-17T16:21:45.776Z,99.90
2019-05-17T16:24:14.942Z,99.90
2019-05-17T16:26:43.345Z,99.90
2019-05-17T16:29:11.751Z,99.90
2019-05-17T16:31:40.248Z,99.90
2019-05-17T16:34:08.662Z,99.90
2019-05-17T16:36:37.364Z,99.90
2019-05-17T16:39:08.354Z,99.90
2019-05-17T16:41:36.651Z,99.90
2019-05-17T16:44:05.102Z,99.90
2019-05-17T16:46:33.511Z,99.90
2019-05-17T16:49:01.985Z,99.90
2019-05-17T16:51:30.376Z,99.90
2019-05-17T16:53:58.775Z,99.90
2019-05-17T16:56:27.191Z,99.90
2019-05-17T16:58:55.586Z,99.90
2019-05-17T17:01:24.001Z,99.90
2019-05-17T17:03:52.536Z,99.90
2019-05-17T17:06:21.039Z,99.90
2019-05-17T17:08:49.466Z,99.90
2019-05-17T17:11:17.859Z,99.90
2019-05-17T17:13:46.262Z,99.90
2019-05-17T17:16:14.894Z,99.90
2019-05-17T17:18:43.467Z,99.90
2019-05-17T17:21:12.421Z,99.90
2019-05-17T17:23:40.799Z,99.90
2019-05-17T17:26:09.530Z,99.90
2019-05-17T17:28:37.978Z,99.90
2019-05-17T17:31:09.452Z,99.90
2019-05-17T17:33:38.133Z,99.90
2019-05-17T17:36:06.546Z,99.90
2019-05-17T17:38:34.946Z,99.90
2019-05-17T17:41:03.403Z,99.90
2019-05-17T17:46:54.473Z,99.90
2019-05-17T17:49:23.027Z,99.90
2019-05-17T17:51:51.432Z,99.90
2019-05-17T17:54:19.826Z,99.90
2019-05-17T17:56:48.348Z,99.90
2019-05-17T17:59:16.840Z,99.90
2019-05-17T18:01:45.254Z,99.90
2019-05-17T18:04:13.788Z,99.90
2019-05-17T18:06:42.212Z,99.90
2019-05-17T18:09:10.615Z,99.90
2019-05-17T18:11:40.856Z,99.90
2019-05-17T18:14:13.308Z,99.90
2019-05-17T18:16:42.210Z,99.90
2019-05-17T18:19:10.625Z,99.90
2019-05-17T18:21:39.021Z,99.90
2019-05-17T18:24:07.488Z,99.90
2019-05-17T18:26:36.074Z,99.90
2019-05-17T18:29:07.832Z,99.90
2019-05-17T18:31:34.840Z,99.90
2019-05-17T18:34:03.316Z,99.90
2019-05-17T18:36:31.714Z,99.90
2019-05-17T18:39:00.655Z,99.90
2019-05-17T18:41:29.140Z,99.90
2019-05-17T18:43:57.632Z,99.90
2019-05-17T18:46:26.271Z,99.90
2019-05-17T18:48:54.699Z,99.90
2019-05-17T18:51:23.111Z,99.90
2019-05-17T18:53:51.793Z,99.90
2019-05-17T18:56:20.543Z,99.90
2019-05-17T18:58:49.084Z,99.90
2019-05-17T19:01:17.558Z,99.90
2019-05-17T19:03:45.954Z,99.90
2019-05-17T19:06:14.362Z,99.90
2019-05-17T19:08:42.978Z,99.90
2019-05-17T19:11:11.384Z,99.90
2019-05-17T19:13:39.788Z,99.90
2019-05-17T19:16:08.366Z,99.90
2019-05-17T19:18:37.036Z,99.90
2019-05-17T19:21:05.450Z,99.90
2019-05-17T19:23:33.842Z,99.90
2019-05-17T19:26:02.249Z,99.90
2019-05-17T19:28:30.646Z,99.90
2019-05-17T19:30:59.058Z,99.90
2019-05-17T19:33:27.455Z,99.90
2019-05-17T19:35:55.870Z,99.90
2019-05-17T19:38:24.334Z,99.90
2019-05-17T19:40:52.802Z,99.90
2019-05-17T19:43:21.271Z,99.90
2019-05-17T19:45:49.703Z,99.90
2019-05-17T19:48:19.887Z,99.90
2019-05-17T19:50:48.419Z,99.90
2019-05-17T19:53:17.071Z,99.90
2019-05-17T19:55:45.722Z,99.90
2019-05-17T19:58:14.380Z,99.90
2019-05-17T20:00:42.827Z,99.90
2019-05-17T20:03:11.261Z,99.90
2019-05-17T20:05:39.707Z,99.90
2019-05-17T20:08:08.119Z,99.90
2019-05-17T20:10:36.525Z,99.90
2019-05-17T20:13:05.031Z,99.90
2019-05-17T20:15:35.000Z,99.90
2019-05-17T20:18:03.477Z,99.90
2019-05-17T20:20:32.026Z,99.90
2019-05-17T20:23:00.512Z,99.90
2019-05-17T20:25:28.921Z,99.90
2019-05-17T20:27:57.557Z,99.90
2019-05-17T20:30:26.051Z,99.90
2019-05-17T20:32:54.491Z,99.90
2019-05-17T20:35:22.928Z,99.90
2019-05-17T20:37:51.332Z,99.90
2019-05-17T20:40:20.135Z,99.90
2019-05-17T20:42:48.726Z,99.90
2019-05-17T20:45:30.563Z,99.90
2019-05-17T20:47:47.375Z,99.90
2019-05-17T20:50:16.544Z,99.90
2019-05-17T20:52:45.138Z,99.90
2019-05-17T20:55:14.475Z,99.90
2019-05-17T20:57:42.975Z,99.90
2019-05-17T21:00:13.200Z,99.90
2019-05-17T21:02:41.621Z,99.90
2019-05-17T21:05:13.016Z,99.90
2019-05-17T21:07:41.952Z,99.90
2019-05-17T21:10:10.448Z,99.90
2019-05-17T21:12:39.086Z,99.90
2019-05-17T21:15:08.262Z,99.90
2019-05-17T21:17:36.728Z,99.90
2019-05-17T21:20:09.351Z,99.90
2019-05-17T21:22:45.914Z,99.90
2019-05-17T21:25:14.389Z,99.90
2019-05-17T21:27:43.151Z,99.90
2019-05-17T21:30:11.705Z,99.90
2019-05-17T21:32:40.217Z,99.90
2019-05-17T21:35:08.694Z,99.90
2019-05-17T21:37:37.347Z,99.90
2019-05-17T21:40:07.703Z,99.90
2019-05-17T21:42:36.106Z,99.90
2019-05-17T21:45:06.319Z,99.90
2019-05-17T21:47:34.734Z,99.90
2019-05-17T21:50:03.238Z,99.90
2019-05-17T21:52:31.649Z,99.90
2019-05-17T21:55:00.138Z,99.90
2019-05-17T21:57:28.540Z,99.90
2019-05-17T21:59:56.937Z,99.90
2019-05-17T22:02:25.514Z,99.90
2019-05-17T22:04:53.925Z,99.90
2019-05-17T22:07:22.402Z,99.90
2019-05-17T22:09:50.819Z,99.90
2019-05-17T22:12:19.211Z,99.90
2019-05-17T22:14:47.690Z,99.90
2019-05-17T22:17:16.163Z,99.90
2019-05-17T22:19:44.783Z,99.90
2019-05-17T22:22:13.511Z,99.90
2019-05-17T22:24:41.906Z,99.90
2019-05-17T22:27:10.416Z,99.90
2019-05-17T22:29:38.966Z,99.90
2019-05-17T22:32:07.402Z,99.90
2019-05-17T22:34:36.014Z,99.90
2019-05-17T22:37:04.550Z,99.90
2019-05-17T22:39:32.965Z,99.90
2019-05-17T22:42:01.386Z,99.90
2019-05-17T22:44:29.808Z,99.90
2019-05-17T22:46:58.232Z,99.90
2019-05-17T22:49:26.898Z,99.90
2019-05-17T22:51:55.286Z,99.90
2019-05-17T22:54:23.705Z,99.90
2019-05-17T22:56:52.114Z,99.90
2019-05-17T22:59:20.600Z,99.90
2019-05-17T23:01:49.003Z,99.90
2019-05-17T23:04:17.426Z,99.90
2019-05-17T23:06:45.832Z,99.90
2019-05-17T23:09:14.235Z,99.90
2019-05-17T23:11:42.655Z,99.90
2019-05-17T23:14:11.059Z,99.90
2019-05-17T23:16:51.234Z,99.90
2019-05-17T23:19:10.471Z,99.90
2019-05-17T23:21:39.223Z,99.90
2019-05-17T23:24:10.727Z,99.90
2019-05-17T23:26:39.156Z,99.90
2019-05-17T23:29:07.807Z,99.90
2019-05-17T23:31:36.360Z,99.90
2019-05-17T23:34:04.887Z,99.90
2019-05-17T23:36:33.287Z,99.90
2019-05-17T23:39:01.776Z,99.90
2019-05-17T23:41:30.262Z,99.90
2019-05-17T23:43:58.932Z,99.90
2019-05-17T23:46:27.422Z,99.90
2019-05-17T23:48:55.865Z,99.90
2019-05-17T23:51:24.548Z,99.90
2019-05-17T23:53:52.992Z,99.90
2019-05-17T23:56:21.477Z,99.90
2019-05-17T23:58:50.228Z,99.90
